NKS1 TJSJ-KMCO
Flight info
| Callsign | NKS1 |
|---|---|
| Flight time | N/A |
| Altitude | 34000 |
| Route | ACONY3 SAPPO Y280 OCTAL MUNGI1 |
| Aircraft | A320/M-SDE3FGHIRWY/LB1 |
Departure
| Time | 2026-05-04 11:53 |
|---|---|
| Airport | Luis Munoz Marin International Airport (TJSJ) |
Arrival
| Time | N/A |
|---|---|
| Airport | Orlando International Airport (KMCO) |
| Time | Latitude | Longitude | Altitude | Speed | Heading |
|---|---|---|---|---|---|
| 2026-05-04 11:40 | 18.43706 | -66.00222 | 17 ft | 0 kts | 182° |
| 2026-05-04 11:44 | 18.43719 | -66.00222 | 19 ft | 3 kts | 174° |
| 2026-05-04 11:45 | 18.43738 | -66.00226 | 20 ft | 3 kts | 150° |
| 2026-05-04 11:45 | 18.43752 | -66.00238 | 20 ft | 3 kts | 105° |
| 2026-05-04 11:45 | 18.43753 | -66.00250 | 19 ft | 1 kts | 78° |
| 2026-05-04 11:45 | 18.43752 | -66.00253 | 21 ft | 0 kts | 78° |
| 2026-05-04 11:47 | 18.43757 | -66.00231 | 20 ft | 5 kts | 78° |
| 2026-05-04 11:48 | 18.43765 | -66.00187 | 17 ft | 7 kts | 80° |
| 2026-05-04 11:48 | 18.43777 | -66.00129 | 17 ft | 10 kts | 71° |
| 2026-05-04 11:48 | 18.43808 | -66.00057 | 19 ft | 12 kts | 47° |
| 2026-05-04 11:48 | 18.43886 | -66.00068 | 17 ft | 13 kts | 337° |
| 2026-05-04 11:49 | 18.43974 | -66.00108 | 17 ft | 15 kts | 337° |
| 2026-05-04 11:49 | 18.44072 | -66.00151 | 17 ft | 16 kts | 337° |
| 2026-05-04 11:49 | 18.44180 | -66.00204 | 18 ft | 17 kts | 320° |
| 2026-05-04 11:49 | 18.44160 | -66.00323 | 19 ft | 17 kts | 248° |
| 2026-05-04 11:50 | 18.44127 | -66.00444 | 17 ft | 19 kts | 268° |
| 2026-05-04 11:50 | 18.44094 | -66.00579 | 18 ft | 20 kts | 249° |
| 2026-05-04 11:50 | 18.44034 | -66.00719 | 17 ft | 22 kts | 247° |
| 2026-05-04 11:50 | 18.43973 | -66.00873 | 17 ft | 24 kts | 246° |
| 2026-05-04 11:51 | 18.43908 | -66.01033 | 17 ft | 21 kts | 246° |
| 2026-05-04 11:51 | 18.43852 | -66.01183 | 17 ft | 23 kts | 252° |
| 2026-05-04 11:51 | 18.43808 | -66.01324 | 17 ft | 13 kts | 276° |
| 2026-05-04 11:51 | 18.43825 | -66.01354 | 18 ft | 1 kts | 324° |
| 2026-05-04 11:52 | 18.43849 | -66.01368 | 17 ft | 9 kts | 333° |
| 2026-05-04 11:52 | 18.43924 | -66.01361 | 17 ft | 13 kts | 52° |
| 2026-05-04 11:52 | 18.43964 | -66.01265 | 17 ft | 18 kts | 66° |
| 2026-05-04 11:52 | 18.44074 | -66.00995 | 17 ft | 72 kts | 67° |
| 2026-05-04 11:53 | 18.44363 | -66.00283 | 18 ft | 138 kts | 66° |
| 2026-05-04 11:53 | 18.44818 | -65.99181 | 126 ft | 185 kts | 68° |
| 2026-05-04 11:53 | 18.45336 | -65.97911 | 816 ft | 189 kts | 66° |
| 2026-05-04 11:53 | 18.45995 | -65.96700 | 1351 ft | 202 kts | 44° |
| 2026-05-04 11:55 | 18.55757 | -66.04187 | 5823 ft | 293 kts | 313° |
| 2026-05-04 11:55 | 18.57121 | -66.05791 | 6634 ft | 295 kts | 314° |
| 2026-05-04 11:56 | 18.58498 | -66.07406 | 7416 ft | 297 kts | 313° |
| 2026-05-04 11:56 | 18.59880 | -66.09030 | 8184 ft | 298 kts | 313° |
| 2026-05-04 11:56 | 18.61270 | -66.10664 | 8933 ft | 301 kts | 313° |
| 2026-05-04 11:56 | 18.62673 | -66.12312 | 9674 ft | 302 kts | 313° |
| 2026-05-04 11:57 | 18.64084 | -66.13972 | 10309 ft | 309 kts | 312° |
| 2026-05-04 11:57 | 18.65573 | -66.15719 | 10440 ft | 331 kts | 312° |
| 2026-05-04 11:57 | 18.67153 | -66.17569 | 10740 ft | 345 kts | 312° |
| 2026-05-04 11:57 | 18.68769 | -66.19466 | 11267 ft | 350 kts | 311° |
| 2026-05-04 11:58 | 18.70403 | -66.21391 | 11853 ft | 353 kts | 311° |
| 2026-05-04 11:58 | 18.72048 | -66.23332 | 12429 ft | 357 kts | 311° |
| 2026-05-04 11:58 | 18.73710 | -66.25290 | 13008 ft | 360 kts | 311° |
| 2026-05-04 11:58 | 18.75384 | -66.27261 | 13589 ft | 363 kts | 310° |
| 2026-05-04 11:59 | 18.77072 | -66.29251 | 14134 ft | 365 kts | 310° |
| 2026-05-04 11:59 | 18.78772 | -66.31256 | 14674 ft | 367 kts | 310° |
| 2026-05-04 11:59 | 18.80481 | -66.33268 | 15227 ft | 368 kts | 310° |
| 2026-05-04 11:59 | 18.82191 | -66.35281 | 15786 ft | 370 kts | 309° |
| 2026-05-04 12:00 | 18.83911 | -66.37310 | 16325 ft | 371 kts | 309° |
| 2026-05-04 12:00 | 18.85636 | -66.39347 | 16855 ft | 373 kts | 309° |
| 2026-05-04 12:00 | 18.87370 | -66.41394 | 17401 ft | 375 kts | 309° |
| 2026-05-04 12:00 | 18.89114 | -66.43453 | 17942 ft | 377 kts | 309° |
| 2026-05-04 12:01 | 18.90822 | -66.45471 | 18453 ft | 379 kts | 309° |
| 2026-05-04 12:01 | 18.92580 | -66.47548 | 18899 ft | 381 kts | 310° |
| 2026-05-04 12:02 | 19.04337 | -66.59496 | 21507 ft | 401 kts | 315° |
| 2026-05-04 12:03 | 19.06370 | -66.61542 | 21926 ft | 405 kts | 315° |
| 2026-05-04 12:03 | 19.08343 | -66.63686 | 22337 ft | 407 kts | 308° |
| 2026-05-04 12:03 | 19.10145 | -66.66010 | 22734 ft | 411 kts | 308° |
| 2026-05-04 12:03 | 19.11964 | -66.68356 | 23124 ft | 414 kts | 308° |
| 2026-05-04 12:04 | 19.13777 | -66.70692 | 23500 ft | 418 kts | 309° |
| 2026-05-04 12:04 | 19.15629 | -66.73076 | 23831 ft | 421 kts | 309° |
| 2026-05-04 12:04 | 19.17493 | -66.75473 | 24186 ft | 423 kts | 309° |
| 2026-05-04 12:04 | 19.18758 | -66.77099 | 24443 ft | 423 kts | 309° |
| 2026-05-04 12:05 | 19.21241 | -66.80284 | 24936 ft | 424 kts | 309° |
| 2026-05-04 12:05 | 19.23116 | -66.82693 | 25315 ft | 424 kts | 308° |
| 2026-05-04 12:05 | 19.24988 | -66.85102 | 25690 ft | 424 kts | 308° |
| 2026-05-04 12:05 | 19.26862 | -66.87516 | 26058 ft | 425 kts | 308° |
| 2026-05-04 12:06 | 19.28742 | -66.89936 | 26412 ft | 425 kts | 308° |
| 2026-05-04 12:06 | 19.30010 | -66.91570 | 26637 ft | 426 kts | 308° |
| 2026-05-04 12:06 | 19.32504 | -66.94788 | 27060 ft | 428 kts | 308° |
| 2026-05-04 12:06 | 19.33779 | -66.96433 | 27274 ft | 428 kts | 308° |
| 2026-05-04 12:07 | 19.35676 | -66.98878 | 27576 ft | 430 kts | 308° |
| 2026-05-04 12:07 | 19.38193 | -67.02126 | 27981 ft | 432 kts | 308° |
| 2026-05-04 12:07 | 19.39457 | -67.03758 | 28184 ft | 433 kts | 308° |
| 2026-05-04 12:07 | 19.42015 | -67.07063 | 28608 ft | 434 kts | 308° |
| 2026-05-04 12:08 | 19.43935 | -67.09545 | 28939 ft | 435 kts | 308° |
| 2026-05-04 12:08 | 19.45206 | -67.11190 | 29158 ft | 436 kts | 308° |
| 2026-05-04 12:08 | 19.47128 | -67.13680 | 29488 ft | 437 kts | 308° |
| 2026-05-04 12:08 | 19.49054 | -67.16177 | 29802 ft | 438 kts | 308° |
| 2026-05-04 12:09 | 19.50990 | -67.18681 | 30122 ft | 439 kts | 308° |
| 2026-05-04 12:09 | 19.52923 | -67.21180 | 30482 ft | 438 kts | 308° |
| 2026-05-04 12:09 | 19.54852 | -67.23672 | 30828 ft | 437 kts | 308° |
| 2026-05-04 12:09 | 19.56780 | -67.26163 | 31157 ft | 437 kts | 308° |
| 2026-05-04 12:10 | 19.58706 | -67.28655 | 31471 ft | 437 kts | 308° |
| 2026-05-04 12:10 | 19.60630 | -67.31151 | 31790 ft | 437 kts | 308° |
| 2026-05-04 12:10 | 19.62555 | -67.33649 | 32113 ft | 437 kts | 308° |
| 2026-05-04 12:10 | 19.64478 | -67.36150 | 32437 ft | 438 kts | 308° |
| 2026-05-04 12:11 | 19.66403 | -67.38656 | 32762 ft | 438 kts | 308° |
| 2026-05-04 12:11 | 19.68325 | -67.41154 | 33099 ft | 438 kts | 308° |
| 2026-05-04 12:11 | 19.70253 | -67.43659 | 33433 ft | 438 kts | 308° |
| 2026-05-04 12:11 | 19.72176 | -67.46158 | 33770 ft | 438 kts | 308° |
| 2026-05-04 12:12 | 19.74103 | -67.48664 | 34025 ft | 438 kts | 308° |
| 2026-05-04 12:12 | 19.76033 | -67.51173 | 34072 ft | 439 kts | 308° |
| 2026-05-04 12:12 | 19.79895 | -67.56196 | 34069 ft | 439 kts | 308° |
| 2026-05-04 12:14 | 19.95306 | -67.76312 | 34070 ft | 439 kts | 307° |
| 2026-05-04 12:15 | 19.99131 | -67.81318 | 34070 ft | 439 kts | 307° |
| 2026-05-04 12:15 | 20.03012 | -67.86395 | 34075 ft | 439 kts | 307° |
| 2026-05-04 12:16 | 20.06840 | -67.91402 | 34076 ft | 439 kts | 307° |
| 2026-05-04 12:16 | 20.10685 | -67.96452 | 34076 ft | 439 kts | 307° |
| 2026-05-04 12:17 | 20.14538 | -68.01505 | 34077 ft | 439 kts | 307° |
| 2026-05-04 12:17 | 20.18385 | -68.06560 | 34076 ft | 439 kts | 307° |
| 2026-05-04 12:18 | 20.22256 | -68.11647 | 34082 ft | 439 kts | 307° |
| 2026-05-04 12:18 | 20.26075 | -68.16670 | 34080 ft | 439 kts | 307° |
| 2026-05-04 12:19 | 20.29913 | -68.21722 | 34079 ft | 439 kts | 307° |
| 2026-05-04 12:19 | 20.33774 | -68.26809 | 34076 ft | 439 kts | 307° |
| 2026-05-04 12:20 | 20.37609 | -68.31870 | 34076 ft | 439 kts | 307° |
| 2026-05-04 12:20 | 20.41446 | -68.36922 | 34078 ft | 438 kts | 307° |
| 2026-05-04 12:21 | 20.45042 | -68.42146 | 34076 ft | 436 kts | 300° |
| 2026-05-04 12:21 | 20.48248 | -68.47630 | 34076 ft | 436 kts | 300° |
| 2026-05-04 12:22 | 20.51472 | -68.53105 | 34074 ft | 436 kts | 300° |
| 2026-05-04 12:22 | 20.54703 | -68.58582 | 34071 ft | 436 kts | 300° |
| 2026-05-04 12:23 | 20.57903 | -68.64024 | 34069 ft | 436 kts | 300° |
| 2026-05-04 12:23 | 20.61122 | -68.69507 | 34070 ft | 436 kts | 300° |
| 2026-05-04 12:24 | 20.64338 | -68.74992 | 34074 ft | 436 kts | 300° |
| 2026-05-04 12:24 | 20.67555 | -68.80482 | 34077 ft | 436 kts | 300° |
| 2026-05-04 12:25 | 20.70766 | -68.85973 | 34073 ft | 436 kts | 300° |
| 2026-05-04 12:25 | 20.73977 | -68.91469 | 34077 ft | 436 kts | 300° |
| 2026-05-04 12:26 | 20.75580 | -68.94214 | 34078 ft | 436 kts | 300° |
| 2026-05-04 12:27 | 20.84607 | -69.09593 | 34077 ft | 436 kts | 299° |
| 2026-05-04 12:28 | 20.87783 | -69.15115 | 34076 ft | 436 kts | 299° |
| 2026-05-04 12:28 | 20.90963 | -69.20629 | 34073 ft | 435 kts | 299° |
| 2026-05-04 12:29 | 20.94160 | -69.26131 | 34078 ft | 435 kts | 299° |
| 2026-05-04 12:29 | 20.97359 | -69.31626 | 34074 ft | 435 kts | 299° |
| 2026-05-04 12:30 | 21.00545 | -69.37122 | 34077 ft | 434 kts | 299° |
| 2026-05-04 12:30 | 21.03731 | -69.42617 | 34072 ft | 434 kts | 299° |
| 2026-05-04 12:31 | 21.06909 | -69.48108 | 34078 ft | 434 kts | 299° |
| 2026-05-04 12:31 | 21.10078 | -69.53599 | 34075 ft | 434 kts | 299° |
| 2026-05-04 12:32 | 21.14836 | -69.61849 | 34079 ft | 433 kts | 299° |
| 2026-05-04 12:33 | 21.17998 | -69.67344 | 34077 ft | 433 kts | 299° |